sensor_id;sensor_type;location;lat;lon;timestamp;P1;durP1;ratioP1;P2;durP2;ratioP2
52266;SDS011;38223;50.940;4.034;2023-04-06T00:03:11;29.57;;;15.98;;
52266;SDS011;38223;50.940;4.034;2023-04-06T00:05:43;25.57;;;15.83;;
52266;SDS011;38223;50.940;4.034;2023-04-06T00:08:15;23.07;;;14.87;;
52266;SDS011;38223;50.940;4.034;2023-04-06T00:10:45;25.17;;;15.70;;
52266;SDS011;38223;50.940;4.034;2023-04-06T00:13:16;28.83;;;15.60;;
52266;SDS011;38223;50.940;4.034;2023-04-06T00:15:49;23.65;;;15.85;;
52266;SDS011;38223;50.940;4.034;2023-04-06T00:18:20;23.65;;;16.30;;
52266;SDS011;38223;50.940;4.034;2023-04-06T00:20:51;28.23;;;15.83;;
52266;SDS011;38223;50.940;4.034;2023-04-06T00:23:19;26.87;;;15.18;;
52266;SDS011;38223;50.940;4.034;2023-04-06T00:25:49;26.70;;;15.50;;
52266;SDS011;38223;50.940;4.034;2023-04-06T00:28:19;21.20;;;15.20;;
52266;SDS011;38223;50.940;4.034;2023-04-06T00:30:55;21.82;;;14.75;;
52266;SDS011;38223;50.940;4.034;2023-04-06T00:33:25;22.00;;;15.40;;
52266;SDS011;38223;50.940;4.034;2023-04-06T00:36:00;19.70;;;14.38;;
52266;SDS011;38223;50.940;4.034;2023-04-06T00:38:31;27.40;;;15.40;;
52266;SDS011;38223;50.940;4.034;2023-04-06T00:41:05;25.25;;;16.48;;
52266;SDS011;38223;50.940;4.034;2023-04-06T00:43:36;22.75;;;14.73;;
52266;SDS011;38223;50.940;4.034;2023-04-06T00:46:08;23.73;;;14.95;;
52266;SDS011;38223;50.940;4.034;2023-04-06T00:48:40;19.37;;;14.70;;
52266;SDS011;38223;50.940;4.034;2023-04-06T00:51:11;22.58;;;14.87;;
52266;SDS011;38223;50.940;4.034;2023-04-06T00:53:42;23.62;;;15.68;;
52266;SDS011;38223;50.940;4.034;2023-04-06T00:56:13;22.52;;;15.75;;
52266;SDS011;38223;50.940;4.034;2023-04-06T00:58:43;21.27;;;14.80;;
52266;SDS011;38223;50.940;4.034;2023-04-06T01:01:15;24.35;;;14.83;;
52266;SDS011;38223;50.940;4.034;2023-04-06T01:03:44;24.18;;;16.20;;
52266;SDS011;38223;50.940;4.034;2023-04-06T01:06:20;24.87;;;15.45;;
52266;SDS011;38223;50.940;4.034;2023-04-06T01:08:49;20.40;;;14.65;;
52266;SDS011;38223;50.940;4.034;2023-04-06T01:11:24;25.48;;;15.85;;
52266;SDS011;38223;50.940;4.034;2023-04-06T01:13:58;26.85;;;14.85;;
52266;SDS011;38223;50.940;4.034;2023-04-06T01:16:28;22.95;;;15.38;;
52266;SDS011;38223;50.940;4.034;2023-04-06T01:19:04;28.75;;;15.72;;
52266;SDS011;38223;50.940;4.034;2023-04-06T01:21:31;27.17;;;15.68;;
52266;SDS011;38223;50.940;4.034;2023-04-06T01:24:04;23.32;;;15.63;;
52266;SDS011;38223;50.940;4.034;2023-04-06T01:26:34;23.10;;;15.70;;
52266;SDS011;38223;50.940;4.034;2023-04-06T01:29:09;24.35;;;15.53;;
52266;SDS011;38223;50.940;4.034;2023-04-06T01:31:39;25.35;;;15.45;;
52266;SDS011;38223;50.940;4.034;2023-04-06T01:34:09;27.52;;;16.07;;
52266;SDS011;38223;50.940;4.034;2023-04-06T01:36:43;22.80;;;14.80;;
52266;SDS011;38223;50.940;4.034;2023-04-06T01:39:12;23.35;;;15.72;;
52266;SDS011;38223;50.940;4.034;2023-04-06T01:41:48;22.58;;;15.18;;
52266;SDS011;38223;50.940;4.034;2023-04-06T01:44:19;22.98;;;15.65;;
52266;SDS011;38223;50.940;4.034;2023-04-06T01:46:48;25.30;;;16.02;;
52266;SDS011;38223;50.940;4.034;2023-04-06T01:49:20;24.43;;;16.97;;
52266;SDS011;38223;50.940;4.034;2023-04-06T01:51:50;23.07;;;15.28;;
52266;SDS011;38223;50.940;4.034;2023-04-06T01:54:23;27.82;;;16.02;;
52266;SDS011;38223;50.940;4.034;2023-04-06T01:56:50;25.17;;;16.05;;
52266;SDS011;38223;50.940;4.034;2023-04-06T01:59:39;26.27;;;16.57;;
52266;SDS011;38223;50.940;4.034;2023-04-06T02:02:12;24.57;;;15.95;;
52266;SDS011;38223;50.940;4.034;2023-04-06T02:04:42;25.90;;;16.75;;
52266;SDS011;38223;50.940;4.034;2023-04-06T02:07:16;26.62;;;17.48;;
52266;SDS011;38223;50.940;4.034;2023-04-06T02:09:46;24.67;;;16.23;;
52266;SDS011;38223;50.940;4.034;2023-04-06T02:12:23;27.60;;;17.70;;
52266;SDS011;38223;50.940;4.034;2023-04-06T02:14:52;22.98;;;16.07;;
52266;SDS011;38223;50.940;4.034;2023-04-06T02:17:25;24.10;;;16.70;;
52266;SDS011;38223;50.940;4.034;2023-04-06T02:19:55;24.27;;;16.15;;
52266;SDS011;38223;50.940;4.034;2023-04-06T02:22:25;22.17;;;15.75;;
52266;SDS011;38223;50.940;4.034;2023-04-06T02:25:00;26.27;;;16.45;;
52266;SDS011;38223;50.940;4.034;2023-04-06T02:27:33;25.15;;;16.23;;
52266;SDS011;38223;50.940;4.034;2023-04-06T02:30:04;24.15;;;15.65;;
52266;SDS011;38223;50.940;4.034;2023-04-06T02:32:37;25.97;;;16.30;;
52266;SDS011;38223;50.940;4.034;2023-04-06T02:35:27;22.70;;;17.17;;
52266;SDS011;38223;50.940;4.034;2023-04-06T02:38:06;22.62;;;15.55;;
52266;SDS011;38223;50.940;4.034;2023-04-06T02:40:36;26.50;;;16.23;;
52266;SDS011;38223;50.940;4.034;2023-04-06T02:43:24;22.30;;;16.27;;
52266;SDS011;38223;50.940;4.034;2023-04-06T02:45:56;23.87;;;16.48;;
52266;SDS011;38223;50.940;4.034;2023-04-06T02:48:30;27.25;;;15.65;;
52266;SDS011;38223;50.940;4.034;2023-04-06T02:50:59;24.98;;;16.12;;
52266;SDS011;38223;50.940;4.034;2023-04-06T02:53:30;26.65;;;15.88;;
52266;SDS011;38223;50.940;4.034;2023-04-06T02:56:06;21.27;;;16.10;;
52266;SDS011;38223;50.940;4.034;2023-04-06T02:58:42;24.47;;;16.35;;
52266;SDS011;38223;50.940;4.034;2023-04-06T03:01:14;23.27;;;16.25;;
52266;SDS011;38223;50.940;4.034;2023-04-06T03:03:47;21.95;;;16.48;;
52266;SDS011;38223;50.940;4.034;2023-04-06T03:06:15;22.00;;;16.42;;
52266;SDS011;38223;50.940;4.034;2023-04-06T03:08:45;23.20;;;17.35;;
52266;SDS011;38223;50.940;4.034;2023-04-06T03:11:17;25.68;;;16.23;;
52266;SDS011;38223;50.940;4.034;2023-04-06T03:13:52;24.52;;;17.32;;
52266;SDS011;38223;50.940;4.034;2023-04-06T03:16:22;23.57;;;16.40;;
52266;SDS011;38223;50.940;4.034;2023-04-06T03:18:52;32.05;;;17.07;;
52266;SDS011;38223;50.940;4.034;2023-04-06T03:21:23;25.25;;;16.70;;
52266;SDS011;38223;50.940;4.034;2023-04-06T03:23:58;22.95;;;16.30;;
52266;SDS011;38223;50.940;4.034;2023-04-06T03:26:29;29.90;;;17.67;;
52266;SDS011;38223;50.940;4.034;2023-04-06T03:29:00;27.42;;;16.95;;
52266;SDS011;38223;50.940;4.034;2023-04-06T03:31:48;23.02;;;16.55;;
52266;SDS011;38223;50.940;4.034;2023-04-06T03:34:19;23.47;;;17.52;;
52266;SDS011;38223;50.940;4.034;2023-04-06T03:36:47;22.52;;;16.90;;
52266;SDS011;38223;50.940;4.034;2023-04-06T03:39:16;24.72;;;16.73;;
52266;SDS011;38223;50.940;4.034;2023-04-06T03:41:48;23.92;;;17.77;;
52266;SDS011;38223;50.940;4.034;2023-04-06T03:44:17;28.38;;;18.82;;
52266;SDS011;38223;50.940;4.034;2023-04-06T03:46:47;26.25;;;17.92;;
52266;SDS011;38223;50.940;4.034;2023-04-06T03:49:15;25.02;;;18.67;;
52266;SDS011;38223;50.940;4.034;2023-04-06T03:51:51;21.50;;;18.23;;
52266;SDS011;38223;50.940;4.034;2023-04-06T03:54:21;25.88;;;18.52;;
52266;SDS011;38223;50.940;4.034;2023-04-06T03:56:51;32.97;;;18.33;;
52266;SDS011;38223;50.940;4.034;2023-04-06T03:59:26;28.23;;;17.98;;
52266;SDS011;38223;50.940;4.034;2023-04-06T04:02:05;23.18;;;18.07;;
52266;SDS011;38223;50.940;4.034;2023-04-06T04:04:35;24.00;;;19.00;;
52266;SDS011;38223;50.940;4.034;2023-04-06T04:07:05;32.80;;;19.30;;
52266;SDS011;38223;50.940;4.034;2023-04-06T04:09:41;26.93;;;19.30;;
52266;SDS011;38223;50.940;4.034;2023-04-06T04:12:12;28.67;;;18.75;;
52266;SDS011;38223;50.940;4.034;2023-04-06T04:14:42;24.35;;;18.95;;
52266;SDS011;38223;50.940;4.034;2023-04-06T04:17:16;26.90;;;20.43;;
52266;SDS011;38223;50.940;4.034;2023-04-06T04:19:45;28.02;;;19.57;;
52266;SDS011;38223;50.940;4.034;2023-04-06T04:22:24;25.85;;;18.32;;
52266;SDS011;38223;50.940;4.034;2023-04-06T04:24:57;23.47;;;18.42;;
52266;SDS011;38223;50.940;4.034;2023-04-06T04:27:31;25.62;;;18.77;;
52266;SDS011;38223;50.940;4.034;2023-04-06T04:30:04;29.98;;;18.95;;
52266;SDS011;38223;50.940;4.034;2023-04-06T04:32:36;26.15;;;19.92;;
52266;SDS011;38223;50.940;4.034;2023-04-06T04:35:08;28.23;;;20.05;;
52266;SDS011;38223;50.940;4.034;2023-04-06T04:37:38;34.35;;;20.82;;
52266;SDS011;38223;50.940;4.034;2023-04-06T04:40:13;25.02;;;19.60;;
52266;SDS011;38223;50.940;4.034;2023-04-06T04:42:44;27.37;;;19.92;;
52266;SDS011;38223;50.940;4.034;2023-04-06T04:48:04;25.37;;;19.17;;
52266;SDS011;38223;50.940;4.034;2023-04-06T04:50:35;29.00;;;20.70;;
52266;SDS011;38223;50.940;4.034;2023-04-06T04:53:08;24.30;;;20.12;;
52266;SDS011;38223;50.940;4.034;2023-04-06T04:55:41;31.75;;;21.10;;
52266;SDS011;38223;50.940;4.034;2023-04-06T04:58:10;30.05;;;20.40;;
52266;SDS011;38223;50.940;4.034;2023-04-06T05:00:44;29.25;;;20.05;;
52266;SDS011;38223;50.940;4.034;2023-04-06T05:03:16;33.88;;;20.97;;
52266;SDS011;38223;50.940;4.034;2023-04-06T05:05:55;34.10;;;22.00;;
52266;SDS011;38223;50.940;4.034;2023-04-06T05:08:25;32.13;;;19.60;;
52266;SDS011;38223;50.940;4.034;2023-04-06T05:10:56;270.80;;;32.35;;
52266;SDS011;38223;50.940;4.034;2023-04-06T05:13:34;28.25;;;20.57;;
52266;SDS011;38223;50.940;4.034;2023-04-06T05:16:09;29.42;;;20.35;;
52266;SDS011;38223;50.940;4.034;2023-04-06T05:18:43;31.35;;;20.25;;
52266;SDS011;38223;50.940;4.034;2023-04-06T05:21:14;29.27;;;19.73;;
52266;SDS011;38223;50.940;4.034;2023-04-06T05:23:47;27.32;;;20.25;;
52266;SDS011;38223;50.940;4.034;2023-04-06T05:26:15;28.38;;;21.42;;
52266;SDS011;38223;50.940;4.034;2023-04-06T05:28:46;25.47;;;19.53;;
52266;SDS011;38223;50.940;4.034;2023-04-06T05:31:20;28.20;;;19.82;;
52266;SDS011;38223;50.940;4.034;2023-04-06T05:33:54;24.57;;;19.75;;
52266;SDS011;38223;50.940;4.034;2023-04-06T05:36:24;30.20;;;20.72;;
52266;SDS011;38223;50.940;4.034;2023-04-06T05:38:56;28.30;;;19.87;;
52266;SDS011;38223;50.940;4.034;2023-04-06T05:41:29;29.52;;;20.52;;
52266;SDS011;38223;50.940;4.034;2023-04-06T05:44:02;26.10;;;20.30;;
52266;SDS011;38223;50.940;4.034;2023-04-06T05:46:34;30.23;;;20.77;;
52266;SDS011;38223;50.940;4.034;2023-04-06T05:49:04;26.50;;;20.50;;
52266;SDS011;38223;50.940;4.034;2023-04-06T05:51:39;28.60;;;21.00;;
52266;SDS011;38223;50.940;4.034;2023-04-06T05:54:13;26.68;;;19.62;;
52266;SDS011;38223;50.940;4.034;2023-04-06T05:56:41;28.00;;;19.45;;
52266;SDS011;38223;50.940;4.034;2023-04-06T05:59:11;30.12;;;20.65;;
52266;SDS011;38223;50.940;4.034;2023-04-06T06:01:49;27.85;;;20.37;;
52266;SDS011;38223;50.940;4.034;2023-04-06T06:04:19;32.25;;;20.60;;
52266;SDS011;38223;50.940;4.034;2023-04-06T06:06:50;30.35;;;20.25;;
52266;SDS011;38223;50.940;4.034;2023-04-06T06:09:23;30.77;;;21.23;;
52266;SDS011;38223;50.940;4.034;2023-04-06T06:11:55;31.75;;;22.75;;
52266;SDS011;38223;50.940;4.034;2023-04-06T06:14:33;31.35;;;22.17;;
52266;SDS011;38223;50.940;4.034;2023-04-06T06:17:09;29.90;;;21.62;;
52266;SDS011;38223;50.940;4.034;2023-04-06T06:19:48;28.85;;;21.82;;
52266;SDS011;38223;50.940;4.034;2023-04-06T06:22:26;28.83;;;21.80;;
52266;SDS011;38223;50.940;4.034;2023-04-06T06:25:03;29.40;;;21.55;;
52266;SDS011;38223;50.940;4.034;2023-04-06T06:27:41;30.48;;;22.87;;
52266;SDS011;38223;50.940;4.034;2023-04-06T06:30:19;30.77;;;22.60;;
52266;SDS011;38223;50.940;4.034;2023-04-06T06:32:56;34.67;;;22.93;;
52266;SDS011;38223;50.940;4.034;2023-04-06T06:35:31;31.15;;;21.65;;
52266;SDS011;38223;50.940;4.034;2023-04-06T06:38:10;30.90;;;21.15;;
52266;SDS011;38223;50.940;4.034;2023-04-06T06:40:44;35.85;;;23.32;;
52266;SDS011;38223;50.940;4.034;2023-04-06T06:43:24;36.28;;;22.80;;
52266;SDS011;38223;50.940;4.034;2023-04-06T06:46:12;38.07;;;22.37;;
52266;SDS011;38223;50.940;4.034;2023-04-06T06:48:51;43.17;;;22.30;;
52266;SDS011;38223;50.940;4.034;2023-04-06T06:54:05;37.38;;;22.37;;
52266;SDS011;38223;50.940;4.034;2023-04-06T06:56:48;32.90;;;22.15;;
52266;SDS011;38223;50.940;4.034;2023-04-06T06:59:29;30.55;;;21.65;;
52266;SDS011;38223;50.940;4.034;2023-04-06T07:04:47;33.38;;;20.55;;
52266;SDS011;38223;50.940;4.034;2023-04-06T07:07:22;30.77;;;20.23;;
52266;SDS011;38223;50.940;4.034;2023-04-06T07:10:01;30.05;;;21.30;;
52266;SDS011;38223;50.940;4.034;2023-04-06T07:12:44;30.80;;;21.73;;
52266;SDS011;38223;50.940;4.034;2023-04-06T07:15:22;28.27;;;20.65;;
52266;SDS011;38223;50.940;4.034;2023-04-06T07:17:58;30.52;;;21.73;;
52266;SDS011;38223;50.940;4.034;2023-04-06T07:20:34;27.62;;;19.82;;
52266;SDS011;38223;50.940;4.034;2023-04-06T07:23:07;27.60;;;20.45;;
52266;SDS011;38223;50.940;4.034;2023-04-06T07:25:44;33.18;;;22.95;;
52266;SDS011;38223;50.940;4.034;2023-04-06T07:28:19;30.35;;;21.80;;
52266;SDS011;38223;50.940;4.034;2023-04-06T07:30:50;28.95;;;22.67;;
52266;SDS011;38223;50.940;4.034;2023-04-06T07:33:31;30.88;;;20.80;;
52266;SDS011;38223;50.940;4.034;2023-04-06T07:36:05;26.15;;;20.12;;
52266;SDS011;38223;50.940;4.034;2023-04-06T07:38:40;27.62;;;20.52;;
52266;SDS011;38223;50.940;4.034;2023-04-06T07:41:16;21.30;;;18.05;;
52266;SDS011;38223;50.940;4.034;2023-04-06T07:43:53;23.30;;;17.52;;
52266;SDS011;38223;50.940;4.034;2023-04-06T07:49:09;21.20;;;16.17;;
52266;SDS011;38223;50.940;4.034;2023-04-06T07:51:43;18.90;;;14.93;;
52266;SDS011;38223;50.940;4.034;2023-04-06T07:57:12;16.15;;;12.55;;
52266;SDS011;38223;50.940;4.034;2023-04-06T08:02:33;13.83;;;12.35;;
52266;SDS011;38223;50.940;4.034;2023-04-06T08:05:06;12.10;;;11.00;;
52266;SDS011;38223;50.940;4.034;2023-04-06T08:07:36;15.18;;;11.95;;
52266;SDS011;38223;50.940;4.034;2023-04-06T08:10:07;13.20;;;11.78;;
52266;SDS011;38223;50.940;4.034;2023-04-06T08:12:39;17.52;;;12.07;;
52266;SDS011;38223;50.940;4.034;2023-04-06T08:15:12;14.18;;;11.35;;
52266;SDS011;38223;50.940;4.034;2023-04-06T08:17:40;15.10;;;10.98;;
52266;SDS011;38223;50.940;4.034;2023-04-06T08:20:11;13.58;;;10.03;;
52266;SDS011;38223;50.940;4.034;2023-04-06T08:22:42;17.35;;;11.03;;
52266;SDS011;38223;50.940;4.034;2023-04-06T08:25:13;15.88;;;11.83;;
52266;SDS011;38223;50.940;4.034;2023-04-06T08:27:51;13.08;;;11.50;;
52266;SDS011;38223;50.940;4.034;2023-04-06T08:30:21;14.28;;;11.10;;
52266;SDS011;38223;50.940;4.034;2023-04-06T08:32:53;12.75;;;11.45;;
52266;SDS011;38223;50.940;4.034;2023-04-06T08:35:24;14.85;;;11.45;;
52266;SDS011;38223;50.940;4.034;2023-04-06T08:37:56;14.15;;;11.57;;
52266;SDS011;38223;50.940;4.034;2023-04-06T08:40:29;14.18;;;11.05;;
52266;SDS011;38223;50.940;4.034;2023-04-06T08:43:00;18.60;;;11.22;;
52266;SDS011;38223;50.940;4.034;2023-04-06T08:45:39;17.37;;;11.20;;
52266;SDS011;38223;50.940;4.034;2023-04-06T08:48:09;15.63;;;12.40;;
52266;SDS011;38223;50.940;4.034;2023-04-06T08:50:45;12.55;;;11.15;;
52266;SDS011;38223;50.940;4.034;2023-04-06T08:53:24;16.27;;;12.13;;
52266;SDS011;38223;50.940;4.034;2023-04-06T08:56:00;13.88;;;12.05;;
52266;SDS011;38223;50.940;4.034;2023-04-06T08:58:34;13.45;;;11.43;;
52266;SDS011;38223;50.940;4.034;2023-04-06T09:01:11;17.98;;;12.95;;
52266;SDS011;38223;50.940;4.034;2023-04-06T09:03:45;18.80;;;13.58;;
52266;SDS011;38223;50.940;4.034;2023-04-06T09:06:28;18.20;;;13.30;;
52266;SDS011;38223;50.940;4.034;2023-04-06T09:09:07;18.92;;;13.45;;
52266;SDS011;38223;50.940;4.034;2023-04-06T09:11:45;18.35;;;12.80;;
52266;SDS011;38223;50.940;4.034;2023-04-06T09:14:38;17.07;;;13.32;;
52266;SDS011;38223;50.940;4.034;2023-04-06T09:17:08;17.37;;;13.32;;
52266;SDS011;38223;50.940;4.034;2023-04-06T09:19:47;19.42;;;13.80;;
52266;SDS011;38223;50.940;4.034;2023-04-06T09:22:16;22.77;;;13.83;;
52266;SDS011;38223;50.940;4.034;2023-04-06T09:24:51;18.48;;;13.15;;
52266;SDS011;38223;50.940;4.034;2023-04-06T09:27:34;20.30;;;14.10;;
52266;SDS011;38223;50.940;4.034;2023-04-06T09:30:22;18.85;;;13.80;;
52266;SDS011;38223;50.940;4.034;2023-04-06T09:32:58;19.57;;;13.58;;
52266;SDS011;38223;50.940;4.034;2023-04-06T09:35:35;22.77;;;15.23;;
52266;SDS011;38223;50.940;4.034;2023-04-06T09:38:10;26.17;;;16.07;;
52266;SDS011;38223;50.940;4.034;2023-04-06T09:40:49;28.27;;;16.25;;
52266;SDS011;38223;50.940;4.034;2023-04-06T09:43:31;39.05;;;22.65;;
52266;SDS011;38223;50.940;4.034;2023-04-06T09:46:01;31.90;;;18.25;;
52266;SDS011;38223;50.940;4.034;2023-04-06T09:48:41;31.82;;;17.67;;
52266;SDS011;38223;50.940;4.034;2023-04-06T09:51:23;37.25;;;19.00;;
52266;SDS011;38223;50.940;4.034;2023-04-06T09:53:59;30.52;;;18.15;;
52266;SDS011;38223;50.940;4.034;2023-04-06T09:56:37;35.00;;;19.20;;
52266;SDS011;38223;50.940;4.034;2023-04-06T09:59:17;31.60;;;18.27;;
52266;SDS011;38223;50.940;4.034;2023-04-06T10:01:55;28.57;;;18.20;;
52266;SDS011;38223;50.940;4.034;2023-04-06T10:04:49;28.75;;;17.30;;
52266;SDS011;38223;50.940;4.034;2023-04-06T10:07:25;26.68;;;16.45;;
52266;SDS011;38223;50.940;4.034;2023-04-06T10:10:07;25.30;;;16.40;;
52266;SDS011;38223;50.940;4.034;2023-04-06T10:13:03;24.87;;;15.95;;
52266;SDS011;38223;50.940;4.034;2023-04-06T10:15:41;25.23;;;15.80;;
52266;SDS011;38223;50.940;4.034;2023-04-06T10:18:25;23.15;;;16.17;;
52266;SDS011;38223;50.940;4.034;2023-04-06T10:23:47;22.10;;;14.55;;
52266;SDS011;38223;50.940;4.034;2023-04-06T10:26:28;20.10;;;14.75;;
52266;SDS011;38223;50.940;4.034;2023-04-06T10:29:08;22.82;;;16.23;;
52266;SDS011;38223;50.940;4.034;2023-04-06T10:31:45;20.12;;;14.40;;
52266;SDS011;38223;50.940;4.034;2023-04-06T10:34:34;19.48;;;15.15;;
52266;SDS011;38223;50.940;4.034;2023-04-06T10:37:14;22.48;;;15.80;;
52266;SDS011;38223;50.940;4.034;2023-04-06T10:39:47;20.57;;;15.72;;
52266;SDS011;38223;50.940;4.034;2023-04-06T10:42:36;18.98;;;15.13;;
52266;SDS011;38223;50.940;4.034;2023-04-06T10:45:18;19.75;;;13.95;;
52266;SDS011;38223;50.940;4.034;2023-04-06T10:47:53;20.75;;;14.83;;
52266;SDS011;38223;50.940;4.034;2023-04-06T10:50:23;21.10;;;15.35;;
52266;SDS011;38223;50.940;4.034;2023-04-06T10:53:02;17.70;;;14.63;;
52266;SDS011;38223;50.940;4.034;2023-04-06T10:55:38;17.90;;;14.73;;
52266;SDS011;38223;50.940;4.034;2023-04-06T10:58:16;25.68;;;16.02;;
52266;SDS011;38223;50.940;4.034;2023-04-06T11:00:48;19.73;;;14.78;;
52266;SDS011;38223;50.940;4.034;2023-04-06T11:03:22;17.62;;;14.87;;
52266;SDS011;38223;50.940;4.034;2023-04-06T11:06:07;20.60;;;15.80;;
52266;SDS011;38223;50.940;4.034;2023-04-06T11:08:56;19.62;;;14.93;;
52266;SDS011;38223;50.940;4.034;2023-04-06T11:11:29;21.48;;;17.00;;
52266;SDS011;38223;50.940;4.034;2023-04-06T11:14:01;21.02;;;15.78;;
52266;SDS011;38223;50.940;4.034;2023-04-06T11:16:30;19.25;;;15.48;;
52266;SDS011;38223;50.940;4.034;2023-04-06T11:19:03;23.90;;;16.10;;
52266;SDS011;38223;50.940;4.034;2023-04-06T11:21:50;20.48;;;15.72;;
52266;SDS011;38223;50.940;4.034;2023-04-06T11:24:25;17.50;;;15.72;;
52266;SDS011;38223;50.940;4.034;2023-04-06T11:26:56;26.00;;;19.10;;
52266;SDS011;38223;50.940;4.034;2023-04-06T11:29:33;20.23;;;15.85;;
52266;SDS011;38223;50.940;4.034;2023-04-06T11:32:08;20.43;;;16.00;;
52266;SDS011;38223;50.940;4.034;2023-04-06T11:34:42;19.45;;;15.90;;
52266;SDS011;38223;50.940;4.034;2023-04-06T11:37:22;15.98;;;14.18;;
52266;SDS011;38223;50.940;4.034;2023-04-06T11:40:02;17.30;;;14.95;;
52266;SDS011;38223;50.940;4.034;2023-04-06T11:42:43;14.43;;;12.95;;
52266;SDS011;38223;50.940;4.034;2023-04-06T11:45:21;15.93;;;14.35;;
52266;SDS011;38223;50.940;4.034;2023-04-06T11:50:54;16.15;;;13.10;;
52266;SDS011;38223;50.940;4.034;2023-04-06T11:53:28;14.68;;;12.88;;
52266;SDS011;38223;50.940;4.034;2023-04-06T11:56:08;13.68;;;11.78;;
52266;SDS011;38223;50.940;4.034;2023-04-06T11:58:45;14.80;;;13.22;;
52266;SDS011;38223;50.940;4.034;2023-04-06T12:01:20;14.15;;;12.18;;
52266;SDS011;38223;50.940;4.034;2023-04-06T12:03:57;14.70;;;13.30;;
52266;SDS011;38223;50.940;4.034;2023-04-06T12:06:32;13.80;;;12.40;;
52266;SDS011;38223;50.940;4.034;2023-04-06T12:09:07;13.48;;;12.28;;
52266;SDS011;38223;50.940;4.034;2023-04-06T12:11:40;13.83;;;12.53;;
52266;SDS011;38223;50.940;4.034;2023-04-06T12:14:20;15.18;;;13.50;;
52266;SDS011;38223;50.940;4.034;2023-04-06T12:17:14;14.20;;;12.78;;
52266;SDS011;38223;50.940;4.034;2023-04-06T12:19:57;13.98;;;12.50;;
52266;SDS011;38223;50.940;4.034;2023-04-06T12:22:33;12.58;;;11.25;;
52266;SDS011;38223;50.940;4.034;2023-04-06T12:25:12;15.30;;;13.13;;
52266;SDS011;38223;50.940;4.034;2023-04-06T12:27:42;13.80;;;12.40;;
52266;SDS011;38223;50.940;4.034;2023-04-06T12:30:26;13.58;;;11.80;;
52266;SDS011;38223;50.940;4.034;2023-04-06T12:33:14;13.55;;;12.25;;
52266;SDS011;38223;50.940;4.034;2023-04-06T12:35:41;12.88;;;11.68;;
52266;SDS011;38223;50.940;4.034;2023-04-06T12:38:21;13.10;;;11.90;;
52266;SDS011;38223;50.940;4.034;2023-04-06T12:40:58;14.38;;;12.88;;
52266;SDS011;38223;50.940;4.034;2023-04-06T12:43:37;16.00;;;13.88;;
52266;SDS011;38223;50.940;4.034;2023-04-06T12:46:13;15.90;;;14.07;;
52266;SDS011;38223;50.940;4.034;2023-04-06T12:48:46;14.45;;;12.95;;
52266;SDS011;38223;50.940;4.034;2023-04-06T12:51:23;13.50;;;12.20;;
52266;SDS011;38223;50.940;4.034;2023-04-06T12:53:55;14.73;;;13.25;;
52266;SDS011;38223;50.940;4.034;2023-04-06T12:56:28;15.80;;;14.20;;
52266;SDS011;38223;50.940;4.034;2023-04-06T12:59:00;15.15;;;13.70;;
52266;SDS011;38223;50.940;4.034;2023-04-06T13:01:33;16.82;;;13.88;;
52266;SDS011;38223;50.940;4.034;2023-04-06T13:04:17;15.23;;;13.68;;
52266;SDS011;38223;50.940;4.034;2023-04-06T13:06:55;19.57;;;15.13;;
52266;SDS011;38223;50.940;4.034;2023-04-06T13:09:27;26.40;;;18.45;;
52266;SDS011;38223;50.940;4.034;2023-04-06T13:11:58;21.75;;;15.70;;
52266;SDS011;38223;50.940;4.034;2023-04-06T13:14:32;18.48;;;16.02;;
52266;SDS011;38223;50.940;4.034;2023-04-06T13:17:05;16.00;;;14.40;;
52266;SDS011;38223;50.940;4.034;2023-04-06T13:19:42;17.37;;;15.10;;
52266;SDS011;38223;50.940;4.034;2023-04-06T13:25:20;15.90;;;14.25;;
52266;SDS011;38223;50.940;4.034;2023-04-06T13:27:54;17.40;;;15.60;;
52266;SDS011;38223;50.940;4.034;2023-04-06T13:30:26;16.17;;;14.47;;
52266;SDS011;38223;50.940;4.034;2023-04-06T13:33:06;18.35;;;15.35;;
52266;SDS011;38223;50.940;4.034;2023-04-06T13:35:47;17.17;;;15.45;;
52266;SDS011;38223;50.940;4.034;2023-04-06T13:38:23;16.40;;;14.75;;
52266;SDS011;38223;50.940;4.034;2023-04-06T13:40:52;16.17;;;14.63;;
52266;SDS011;38223;50.940;4.034;2023-04-06T13:43:29;17.92;;;16.07;;
52266;SDS011;38223;50.940;4.034;2023-04-06T13:46:12;18.77;;;14.93;;
52266;SDS011;38223;50.940;4.034;2023-04-06T13:48:45;18.73;;;16.82;;
52266;SDS011;38223;50.940;4.034;2023-04-06T13:51:19;17.80;;;15.90;;
52266;SDS011;38223;50.940;4.034;2023-04-06T13:54:00;17.75;;;15.95;;
52266;SDS011;38223;50.940;4.034;2023-04-06T13:56:31;18.05;;;16.25;;
52266;SDS011;38223;50.940;4.034;2023-04-06T13:59:00;18.02;;;16.20;;
52266;SDS011;38223;50.940;4.034;2023-04-06T14:01:43;18.27;;;16.37;;
52266;SDS011;38223;50.940;4.034;2023-04-06T14:04:32;22.07;;;17.70;;
52266;SDS011;38223;50.940;4.034;2023-04-06T14:10:02;22.45;;;17.82;;
52266;SDS011;38223;50.940;4.034;2023-04-06T14:12:36;20.37;;;18.27;;
52266;SDS011;38223;50.940;4.034;2023-04-06T14:15:10;23.62;;;19.17;;
52266;SDS011;38223;50.940;4.034;2023-04-06T14:17:49;24.57;;;19.30;;
52266;SDS011;38223;50.940;4.034;2023-04-06T14:20:22;25.05;;;20.25;;
52266;SDS011;38223;50.940;4.034;2023-04-06T14:23:12;24.37;;;19.95;;
52266;SDS011;38223;50.940;4.034;2023-04-06T14:26:04;24.85;;;19.75;;
52266;SDS011;38223;50.940;4.034;2023-04-06T14:28:41;25.05;;;19.30;;
52266;SDS011;38223;50.940;4.034;2023-04-06T14:33:52;23.22;;;19.48;;
52266;SDS011;38223;50.940;4.034;2023-04-06T14:36:31;25.50;;;20.77;;
52266;SDS011;38223;50.940;4.034;2023-04-06T14:39:12;22.65;;;19.65;;
52266;SDS011;38223;50.940;4.034;2023-04-06T14:41:53;20.60;;;18.48;;
52266;SDS011;38223;50.940;4.034;2023-04-06T14:44:42;21.45;;;18.92;;
52266;SDS011;38223;50.940;4.034;2023-04-06T14:47:35;24.05;;;18.65;;
52266;SDS011;38223;50.940;4.034;2023-04-06T14:50:04;26.90;;;20.20;;
52266;SDS011;38223;50.940;4.034;2023-04-06T14:52:38;24.90;;;19.23;;
52266;SDS011;38223;50.940;4.034;2023-04-06T14:55:31;25.40;;;19.02;;
52266;SDS011;38223;50.940;4.034;2023-04-06T14:58:14;23.85;;;18.20;;
52266;SDS011;38223;50.940;4.034;2023-04-06T15:00:46;24.80;;;18.05;;
52266;SDS011;38223;50.940;4.034;2023-04-06T15:03:14;18.95;;;16.75;;
52266;SDS011;38223;50.940;4.034;2023-04-06T15:05:44;24.50;;;17.55;;
52266;SDS011;38223;50.940;4.034;2023-04-06T15:08:22;23.27;;;17.70;;
52266;SDS011;38223;50.940;4.034;2023-04-06T15:11:03;21.70;;;17.42;;
52266;SDS011;38223;50.940;4.034;2023-04-06T15:15:59;22.60;;;16.73;;
52266;SDS011;38223;50.940;4.034;2023-04-06T15:18:28;19.57;;;16.60;;
52266;SDS011;38223;50.940;4.034;2023-04-06T15:21:02;22.00;;;17.62;;
52266;SDS011;38223;50.940;4.034;2023-04-06T15:23:41;20.75;;;16.75;;
52266;SDS011;38223;50.940;4.034;2023-04-06T15:26:14;22.55;;;16.65;;
52266;SDS011;38223;50.940;4.034;2023-04-06T15:28:45;22.20;;;17.00;;
52266;SDS011;38223;50.940;4.034;2023-04-06T15:31:21;22.42;;;16.67;;
52266;SDS011;38223;50.940;4.034;2023-04-06T15:33:49;22.27;;;16.45;;
52266;SDS011;38223;50.940;4.034;2023-04-06T15:36:26;24.92;;;18.30;;
52266;SDS011;38223;50.940;4.034;2023-04-06T15:38:56;24.25;;;16.57;;
52266;SDS011;38223;50.940;4.034;2023-04-06T15:41:24;23.62;;;17.27;;